Time;durP1;ratioP1;P1;durP2;ratioP2;P2;SDS_P1;SDS_P2;PMS_P1;PMS_P2;Temp;Humidity;BMP_temperature;BMP_pressure;BME280_temperature;BME280_humidity;BME280_pressure;Samples;Min_cycle;Max_cycle;Signal;HPM_P1;HPM_P2
2022/01/27 00:02:25;;;;;;;58.80;25.10;;;;;;;;;;5039804;28;20640;-68
2022/01/27 00:05:02;;;;;;;59.47;23.67;;;;;;;;;;5042653;28;20189;-68
2022/01/27 00:07:28;;;;;;;54.37;24.10;;;;;;;;;;5042458;28;20275;-68
2022/01/27 00:12:33;;;;;;;57.80;24.67;;;;;;;;;;5046608;28;20185;-68
2022/01/27 00:15:09;;;;;;;62.57;25.50;;;;;;;;;;5047211;28;20528;-68
2022/01/27 00:17:40;;;;;;;60.67;25.47;;;;;;;;;;5045045;28;20264;-68
2022/01/27 00:20:06;;;;;;;54.83;25.17;;;;;;;;;;5048175;28;20351;-68
2022/01/27 00:22:31;;;;;;;56.77;27.30;;;;;;;;;;5043292;28;20201;-68
2022/01/27 00:24:57;;;;;;;63.23;26.87;;;;;;;;;;5046443;28;20672;-69
2022/01/27 00:27:22;;;;;;;59.87;26.03;;;;;;;;;;5042835;28;20185;-68
2022/01/27 00:29:47;;;;;;;56.27;25.13;;;;;;;;;;5042981;28;20288;-69
2022/01/27 00:32:13;;;;;;;58.97;25.43;;;;;;;;;;5044617;28;20286;-68
2022/01/27 00:34:38;;;;;;;55.47;25.67;;;;;;;;;;5049336;28;20231;-69
2022/01/27 00:37:04;;;;;;;56.57;25.07;;;;;;;;;;5044010;28;20645;-67
2022/01/27 00:39:29;;;;;;;56.83;25.30;;;;;;;;;;5046611;28;20683;-69
2022/01/27 00:41:54;;;;;;;57.50;26.43;;;;;;;;;;5040732;28;20241;-69
2022/01/27 00:44:20;;;;;;;58.77;26.57;;;;;;;;;;5046616;28;20273;-68
2022/01/27 00:46:45;;;;;;;54.50;25.23;;;;;;;;;;5044995;28;20239;-68
2022/01/27 00:49:10;;;;;;;47.37;23.77;;;;;;;;;;5043336;28;20177;-68
2022/01/27 00:51:39;;;;;;;51.87;24.40;;;;;;;;;;5037980;28;20614;-68
2022/01/27 00:54:09;;;;;;;51.53;26.43;;;;;;;;;;5048976;28;20189;-69
2022/01/27 00:56:49;;;;;;;59.23;27.43;;;;;;;;;;5046853;28;20199;-68
2022/01/27 00:59:26;;;;;;;54.30;25.27;;;;;;;;;;5042346;28;20173;-68
2022/01/27 01:02:14;;;;;;;54.63;25.97;;;;;;;;;;5032846;28;20782;-69
2022/01/27 01:04:44;;;;;;;53.10;26.37;;;;;;;;;;5047879;28;20173;-68
2022/01/27 01:07:10;;;;;;;54.40;25.83;;;;;;;;;;5045456;28;20531;-69
2022/01/27 01:10:26;;;;;;;58.37;27.30;;;;;;;;;;5044119;28;20202;-69
2022/01/27 01:21:21;;;;;;;53.47;26.37;;;;;;;;;;5045946;28;20718;-68
2022/01/27 01:34:29;;;;;;;56.63;26.17;;;;;;;;;;5044381;28;20185;-68
2022/01/27 01:36:57;;;;;;;51.70;25.47;;;;;;;;;;5044482;28;20201;-68
2022/01/27 01:39:27;;;;;;;53.20;25.90;;;;;;;;;;5040728;28;20181;-68
2022/01/27 01:41:53;;;;;;;59.23;26.77;;;;;;;;;;5045978;28;20220;-68
2022/01/27 01:44:19;;;;;;;50.60;24.67;;;;;;;;;;5040820;28;20194;-69
2022/01/27 01:46:45;;;;;;;54.80;25.10;;;;;;;;;;5044680;28;20490;-69
2022/01/27 01:49:12;;;;;;;49.93;24.07;;;;;;;;;;5039382;28;20204;-68
2022/01/27 01:51:40;;;;;;;46.53;23.50;;;;;;;;;;5043722;28;20197;-68
2022/01/27 01:54:06;;;;;;;52.43;24.30;;;;;;;;;;5038737;28;20185;-68
2022/01/27 01:56:32;;;;;;;50.33;23.10;;;;;;;;;;5032819;28;20181;-68
2022/01/27 01:58:58;;;;;;;53.07;23.97;;;;;;;;;;5043598;28;20189;-68
2022/01/27 02:01:23;;;;;;;47.33;23.37;;;;;;;;;;5033265;28;20274;-69
2022/01/27 02:03:49;;;;;;;46.73;22.27;;;;;;;;;;5043419;28;20197;-68
2022/01/27 02:06:24;;;;;;;45.47;21.83;;;;;;;;;;5036225;28;20189;-69
2022/01/27 02:19:39;;;;;;;41.67;21.30;;;;;;;;;;5039449;28;20196;-67
2022/01/27 02:22:05;;;;;;;43.97;21.93;;;;;;;;;;5039414;28;20271;-67
2022/01/27 02:24:34;;;;;;;43.07;21.73;;;;;;;;;;5039261;28;20392;-68
2022/01/27 02:27:01;;;;;;;36.97;19.60;;;;;;;;;;5037706;28;20535;-68
2022/01/27 02:29:27;;;;;;;39.97;20.73;;;;;;;;;;5042620;28;20579;-68
2022/01/27 02:31:55;;;;;;;43.87;21.17;;;;;;;;;;5043074;28;20205;-68
2022/01/27 02:34:21;;;;;;;44.07;20.67;;;;;;;;;;5038652;28;20212;-68
2022/01/27 02:36:46;;;;;;;40.93;20.20;;;;;;;;;;5043775;28;20680;-68
2022/01/27 02:39:12;;;;;;;41.47;20.50;;;;;;;;;;5040511;28;20181;-68
2022/01/27 02:41:46;;;;;;;43.87;21.00;;;;;;;;;;5043998;28;20186;-68
2022/01/27 02:44:25;;;;;;;42.50;20.57;;;;;;;;;;5040187;28;20289;-68
2022/01/27 02:46:51;;;;;;;39.20;20.60;;;;;;;;;;5041471;28;20213;-68
2022/01/27 02:49:17;;;;;;;44.30;21.73;;;;;;;;;;5043774;28;20251;-68
2022/01/27 02:51:42;;;;;;;44.33;21.60;;;;;;;;;;5038594;28;20198;-68
2022/01/27 02:54:08;;;;;;;44.87;21.60;;;;;;;;;;5041343;28;20189;-68
2022/01/27 02:56:33;;;;;;;45.03;21.43;;;;;;;;;;5045486;28;20216;-68
2022/01/27 02:58:59;;;;;;;46.00;21.87;;;;;;;;;;5033128;28;20182;-68
2022/01/27 03:01:25;;;;;;;37.93;20.10;;;;;;;;;;5045337;28;20674;-68
2022/01/27 03:03:51;;;;;;;45.67;21.57;;;;;;;;;;5039102;28;20225;-68
2022/01/27 03:06:16;;;;;;;41.73;21.27;;;;;;;;;;5043843;28;20212;-68
2022/01/27 03:08:42;;;;;;;42.73;20.53;;;;;;;;;;5037241;28;20220;-68
2022/01/27 03:11:12;;;;;;;42.40;22.00;;;;;;;;;;5043808;28;20333;-67
2022/01/27 03:13:39;;;;;;;42.97;21.47;;;;;;;;;;5042010;28;20752;-68
2022/01/27 03:16:06;;;;;;;46.00;22.00;;;;;;;;;;5041097;28;20181;-68
2022/01/27 03:18:32;;;;;;;43.53;21.30;;;;;;;;;;5041476;28;20193;-69
2022/01/27 03:20:57;;;;;;;43.50;20.80;;;;;;;;;;5044986;28;20551;-69
2022/01/27 03:23:22;;;;;;;45.00;21.17;;;;;;;;;;5039977;28;20564;-69
2022/01/27 03:25:48;;;;;;;44.77;22.17;;;;;;;;;;5046740;28;20276;-69
2022/01/27 03:28:14;;;;;;;40.03;20.10;;;;;;;;;;5045548;28;20191;-68
2022/01/27 03:30:39;;;;;;;42.90;20.50;;;;;;;;;;5046656;28;20564;-68
2022/01/27 03:33:05;;;;;;;43.00;21.53;;;;;;;;;;5048440;28;20246;-68
2022/01/27 03:35:30;;;;;;;44.40;21.17;;;;;;;;;;5041834;28;20186;-68
2022/01/27 03:37:56;;;;;;;41.13;20.40;;;;;;;;;;5046389;28;20185;-68
2022/01/27 03:40:23;;;;;;;45.43;21.90;;;;;;;;;;5040396;28;20259;-69
2022/01/27 03:43:02;;;;;;;39.47;21.53;;;;;;;;;;5048983;28;20186;-69
2022/01/27 03:45:27;;;;;;;42.60;21.07;;;;;;;;;;5044400;28;20280;-68
2022/01/27 03:47:53;;;;;;;42.33;21.20;;;;;;;;;;5040674;28;20655;-68
2022/01/27 03:50:18;;;;;;;39.13;20.30;;;;;;;;;;5043980;28;20206;-68
2022/01/27 03:52:43;;;;;;;42.63;21.10;;;;;;;;;;5040434;28;20201;-69
2022/01/27 03:55:09;;;;;;;45.87;22.53;;;;;;;;;;5041848;28;20198;-68
2022/01/27 03:57:34;;;;;;;41.30;20.60;;;;;;;;;;5046206;28;20189;-68
2022/01/27 03:59:59;;;;;;;42.37;21.60;;;;;;;;;;5044495;28;20208;-68
2022/01/27 04:02:25;;;;;;;45.17;21.33;;;;;;;;;;5048902;28;20209;-69
2022/01/27 04:04:50;;;;;;;44.73;22.00;;;;;;;;;;5043380;28;20561;-68
2022/01/27 04:07:16;;;;;;;42.27;20.63;;;;;;;;;;5044638;28;20185;-69
2022/01/27 04:09:41;;;;;;;40.17;21.27;;;;;;;;;;5045848;28;20218;-69
2022/01/27 04:12:07;;;;;;;41.50;20.87;;;;;;;;;;5041925;28;20336;-68
2022/01/27 04:14:32;;;;;;;45.80;21.93;;;;;;;;;;5044749;28;20182;-68
2022/01/27 04:16:57;;;;;;;43.13;21.90;;;;;;;;;;5040704;28;20201;-68
2022/01/27 04:19:22;;;;;;;44.93;21.73;;;;;;;;;;5045212;28;20193;-68
2022/01/27 04:21:48;;;;;;;45.73;22.70;;;;;;;;;;5041686;28;20202;-68
2022/01/27 04:24:16;;;;;;;44.13;20.70;;;;;;;;;;5036383;28;20280;-68
2022/01/27 04:26:46;;;;;;;38.67;19.87;;;;;;;;;;5044326;28;20193;-68
2022/01/27 04:29:12;;;;;;;41.30;21.10;;;;;;;;;;5045075;28;20232;-68
2022/01/27 04:31:40;;;;;;;43.17;20.93;;;;;;;;;;5043478;28;20681;-68
2022/01/27 04:34:05;;;;;;;42.60;22.33;;;;;;;;;;5044459;28;20255;-68
2022/01/27 04:36:34;;;;;;;41.77;20.47;;;;;;;;;;5041543;28;20258;-68
2022/01/27 04:43:58;;;;;;;40.43;18.77;;;;;;;;;;5045886;28;20234;-68
2022/01/27 04:46:32;;;;;;;41.33;20.60;;;;;;;;;;5048272;28;20256;-68
2022/01/27 04:49:01;;;;;;;41.13;20.10;;;;;;;;;;5042218;28;20185;-68
2022/01/27 04:51:28;;;;;;;39.77;19.77;;;;;;;;;;5039548;28;20205;-68
2022/01/27 04:56:28;;;;;;;40.00;20.53;;;;;;;;;;5039091;28;20622;-68
2022/01/27 04:58:58;;;;;;;40.73;19.83;;;;;;;;;;5046025;28;20190;-68
2022/01/27 05:01:36;;;;;;;40.73;19.93;;;;;;;;;;5040369;28;20297;-68
2022/01/27 05:04:07;;;;;;;41.97;19.60;;;;;;;;;;5041818;28;20493;-68
2022/01/27 05:06:32;;;;;;;40.17;19.27;;;;;;;;;;5041616;28;20190;-68
2022/01/27 05:08:58;;;;;;;40.33;20.97;;;;;;;;;;5046010;28;20251;-68
2022/01/27 05:13:54;;;;;;;41.13;19.77;;;;;;;;;;5042033;28;20185;-68
2022/01/27 05:16:20;;;;;;;38.03;19.70;;;;;;;;;;5043511;28;20244;-68
2022/01/27 05:18:45;;;;;;;42.50;20.87;;;;;;;;;;5046016;28;20601;-68
2022/01/27 05:21:11;;;;;;;41.53;20.67;;;;;;;;;;5040621;28;20307;-69
2022/01/27 05:23:36;;;;;;;41.33;19.93;;;;;;;;;;5039888;28;20181;-68
2022/01/27 05:26:02;;;;;;;38.20;21.03;;;;;;;;;;5041099;28;20240;-68
2022/01/27 05:28:27;;;;;;;40.97;19.97;;;;;;;;;;5043842;28;20201;-68
2022/01/27 05:30:52;;;;;;;41.13;21.17;;;;;;;;;;5042056;28;20224;-69
2022/01/27 05:33:18;;;;;;;44.40;21.73;;;;;;;;;;5042828;28;20197;-68
2022/01/27 05:35:45;;;;;;;37.10;20.17;;;;;;;;;;5044315;28;20208;-68
2022/01/27 05:38:15;;;;;;;42.83;21.77;;;;;;;;;;5037508;28;20204;-68
2022/01/27 05:40:41;;;;;;;44.27;22.33;;;;;;;;;;5039655;28;20652;-69
2022/01/27 05:43:07;;;;;;;46.20;21.53;;;;;;;;;;5046068;28;20216;-69
2022/01/27 05:45:32;;;;;;;47.20;21.43;;;;;;;;;;5039152;28;20221;-68
2022/01/27 05:47:57;;;;;;;43.70;20.80;;;;;;;;;;5045461;28;20271;-68
2022/01/27 05:50:23;;;;;;;45.27;22.23;;;;;;;;;;5041327;28;20205;-68
2022/01/27 05:52:48;;;;;;;47.10;22.77;;;;;;;;;;5041953;28;20255;-68
2022/01/27 05:55:13;;;;;;;48.67;23.00;;;;;;;;;;5040741;28;20216;-68
2022/01/27 05:57:39;;;;;;;44.80;22.20;;;;;;;;;;5043346;28;20294;-69
2022/01/27 06:00:05;;;;;;;46.07;22.83;;;;;;;;;;5041554;28;20196;-68
2022/01/27 06:02:30;;;;;;;49.37;23.43;;;;;;;;;;5042386;28;20683;-68
2022/01/27 06:04:56;;;;;;;47.87;22.87;;;;;;;;;;5041396;28;20186;-68
2022/01/27 06:07:21;;;;;;;49.93;23.93;;;;;;;;;;5046157;28;20182;-67
2022/01/27 06:09:46;;;;;;;48.33;23.90;;;;;;;;;;5038574;28;20317;-69
2022/01/27 06:12:12;;;;;;;54.70;23.80;;;;;;;;;;5042577;28;20437;-68
2022/01/27 06:14:37;;;;;;;56.03;24.13;;;;;;;;;;5040775;28;20189;-68
2022/01/27 06:17:03;;;;;;;56.23;24.13;;;;;;;;;;5035987;28;20688;-68
2022/01/27 06:19:28;;;;;;;57.20;25.17;;;;;;;;;;5037332;28;20189;-67
2022/01/27 06:21:54;;;;;;;56.13;24.03;;;;;;;;;;5042518;28;20196;-68
2022/01/27 06:24:19;;;;;;;62.17;25.23;;;;;;;;;;5044411;28;20572;-68
2022/01/27 06:26:45;;;;;;;51.40;24.47;;;;;;;;;;5039458;28;20195;-69
2022/01/27 06:29:10;;;;;;;59.33;25.37;;;;;;;;;;5037085;28;20185;-68
2022/01/27 06:31:36;;;;;;;49.10;23.70;;;;;;;;;;5042406;28;20295;-67
2022/01/27 06:34:01;;;;;;;52.40;22.80;;;;;;;;;;5038741;28;20595;-68
2022/01/27 06:36:27;;;;;;;46.03;22.33;;;;;;;;;;5040575;28;20676;-68
2022/01/27 06:38:52;;;;;;;51.90;22.97;;;;;;;;;;5042703;28;20189;-68
2022/01/27 06:41:17;;;;;;;49.57;23.47;;;;;;;;;;5042480;28;20410;-69
2022/01/27 06:43:43;;;;;;;53.07;22.60;;;;;;;;;;5035763;28;20636;-69
2022/01/27 06:46:08;;;;;;;50.13;22.67;;;;;;;;;;5040724;28;20204;-68
2022/01/27 06:48:33;;;;;;;51.47;24.43;;;;;;;;;;5042131;28;20185;-69
2022/01/27 06:51:01;;;;;;;49.17;22.17;;;;;;;;;;5042628;28;20204;-69
2022/01/27 06:53:27;;;;;;;52.33;22.20;;;;;;;;;;5044065;28;20188;-68
2022/01/27 06:55:54;;;;;;;48.73;22.17;;;;;;;;;;5048538;28;20631;-69
2022/01/27 06:58:19;;;;;;;48.47;22.50;;;;;;;;;;5036993;28;20193;-69
2022/01/27 07:00:45;;;;;;;50.30;22.17;;;;;;;;;;5046903;28;20648;-69
2022/01/27 07:03:10;;;;;;;58.07;23.77;;;;;;;;;;5042600;28;20628;-69
2022/01/27 07:05:36;;;;;;;51.40;22.57;;;;;;;;;;5039591;28;20193;-68
2022/01/27 07:08:01;;;;;;;52.93;22.10;;;;;;;;;;5040333;28;20224;-68
2022/01/27 07:10:27;;;;;;;49.83;23.13;;;;;;;;;;5045237;28;20731;-69
2022/01/27 07:12:53;;;;;;;48.97;23.70;;;;;;;;;;5048146;28;20200;-69
2022/01/27 07:15:19;;;;;;;51.13;24.07;;;;;;;;;;5044409;28;20193;-69
2022/01/27 07:17:44;;;;;;;50.00;21.60;;;;;;;;;;5045409;28;20255;-69
2022/01/27 07:20:10;;;;;;;46.47;21.83;;;;;;;;;;5042215;28;20223;-69
2022/01/27 07:22:37;;;;;;;52.10;23.23;;;;;;;;;;5043879;28;20487;-68
2022/01/27 07:25:04;;;;;;;50.57;23.20;;;;;;;;;;5043006;28;20280;-68
2022/01/27 07:27:31;;;;;;;54.80;24.13;;;;;;;;;;5042267;28;20619;-69
2022/01/27 07:29:57;;;;;;;52.63;23.33;;;;;;;;;;5040499;28;20237;-69
2022/01/27 07:32:22;;;;;;;52.60;23.93;;;;;;;;;;5041337;28;20263;-69
2022/01/27 07:34:47;;;;;;;52.37;23.33;;;;;;;;;;5040760;28;20201;-69
2022/01/27 07:37:12;;;;;;;52.47;23.13;;;;;;;;;;5043140;28;20189;-69
2022/01/27 07:39:38;;;;;;;56.20;24.20;;;;;;;;;;5042158;28;20189;-70
2022/01/27 07:42:03;;;;;;;52.50;23.23;;;;;;;;;;5045556;28;20276;-70
2022/01/27 07:44:28;;;;;;;59.20;23.27;;;;;;;;;;5046301;28;20224;-70
2022/01/27 07:46:55;;;;;;;51.33;22.93;;;;;;;;;;5043904;28;20304;-70
2022/01/27 07:49:20;;;;;;;55.97;23.77;;;;;;;;;;5046498;28;20279;-69
2022/01/27 07:51:46;;;;;;;56.97;24.03;;;;;;;;;;5044229;28;20213;-69
2022/01/27 07:54:11;;;;;;;54.00;24.27;;;;;;;;;;5047530;28;20267;-70
2022/01/27 07:56:36;;;;;;;51.83;22.87;;;;;;;;;;5046445;28;20275;-70
2022/01/27 07:59:02;;;;;;;44.57;21.60;;;;;;;;;;5042910;28;20189;-69
2022/01/27 08:01:27;;;;;;;47.10;22.20;;;;;;;;;;5048296;28;20610;-70
2022/01/27 08:03:53;;;;;;;47.47;22.80;;;;;;;;;;5043188;28;20193;-69
2022/01/27 08:06:18;;;;;;;49.30;22.23;;;;;;;;;;5045452;28;20193;-69
2022/01/27 08:08:43;;;;;;;42.67;19.80;;;;;;;;;;5046137;28;20185;-70
2022/01/27 08:11:09;;;;;;;46.73;21.20;;;;;;;;;;5045416;28;20249;-70
2022/01/27 08:13:34;;;;;;;46.73;20.47;;;;;;;;;;5045705;28;20186;-70
2022/01/27 08:16:01;;;;;;;42.97;19.93;;;;;;;;;;5045396;28;20496;-71
2022/01/27 08:18:26;;;;;;;47.83;20.43;;;;;;;;;;5040852;28;20235;-73
2022/01/27 08:20:51;;;;;;;45.87;20.53;;;;;;;;;;5046057;28;20216;-73
2022/01/27 08:23:17;;;;;;;42.00;18.57;;;;;;;;;;5041463;28;20224;-72
2022/01/27 08:25:48;;;;;;;37.40;18.73;;;;;;;;;;5046684;28;20613;-72
2022/01/27 08:28:30;;;;;;;39.13;18.30;;;;;;;;;;5043870;28;20534;-72
2022/01/27 08:30:57;;;;;;;40.47;19.53;;;;;;;;;;5044919;28;20236;-71
2022/01/27 08:33:23;;;;;;;31.03;16.70;;;;;;;;;;5046205;28;20325;-73
2022/01/27 08:35:49;;;;;;;40.47;18.17;;;;;;;;;;5043994;28;20185;-72
2022/01/27 08:38:14;;;;;;;36.30;17.97;;;;;;;;;;5047169;28;20208;-73
2022/01/27 08:40:40;;;;;;;36.93;17.83;;;;;;;;;;5044443;28;20181;-73
2022/01/27 08:43:08;;;;;;;38.70;17.70;;;;;;;;;;5045767;28;20185;-71
2022/01/27 08:45:33;;;;;;;35.20;17.07;;;;;;;;;;5046411;28;20397;-72
2022/01/27 08:47:59;;;;;;;30.20;16.30;;;;;;;;;;5047439;28;20816;-71
2022/01/27 08:50:25;;;;;;;34.27;17.20;;;;;;;;;;5044864;28;20284;-71
2022/01/27 08:52:51;;;;;;;33.13;16.80;;;;;;;;;;5045032;28;20335;-71
2022/01/27 08:55:17;;;;;;;29.03;15.53;;;;;;;;;;5045497;28;20610;-72
2022/01/27 08:57:43;;;;;;;30.43;16.23;;;;;;;;;;5039086;28;20280;-72
2022/01/27 09:00:11;;;;;;;31.37;16.10;;;;;;;;;;5046405;28;20220;-71
2022/01/27 09:02:37;;;;;;;30.70;16.23;;;;;;;;;;5043104;28;20201;-71
2022/01/27 09:05:03;;;;;;;32.80;16.27;;;;;;;;;;5042752;28;20256;-71
2022/01/27 09:07:29;;;;;;;29.07;15.60;;;;;;;;;;5042825;28;20276;-71
2022/01/27 09:09:54;;;;;;;28.97;15.30;;;;;;;;;;5046222;28;20284;-70
2022/01/27 09:12:19;;;;;;;26.33;14.43;;;;;;;;;;5044370;28;20197;-70
2022/01/27 09:14:45;;;;;;;29.10;14.90;;;;;;;;;;5042071;28;20663;-71
2022/01/27 09:17:12;;;;;;;29.23;14.73;;;;;;;;;;5042849;28;20224;-71
2022/01/27 09:19:40;;;;;;;31.47;14.60;;;;;;;;;;5041468;28;20277;-72
2022/01/27 09:22:09;;;;;;;27.00;14.07;;;;;;;;;;5041479;28;20177;-70
2022/01/27 09:24:47;;;;;;;25.93;14.00;;;;;;;;;;5045489;28;20567;-71
2022/01/27 09:27:13;;;;;;;25.33;14.37;;;;;;;;;;5042158;28;20219;-70
2022/01/27 09:29:39;;;;;;;28.00;12.63;;;;;;;;;;5038417;28;20253;-71
2022/01/27 09:32:05;;;;;;;25.67;13.47;;;;;;;;;;5046904;28;20723;-71
2022/01/27 09:34:31;;;;;;;20.40;12.27;;;;;;;;;;5046247;28;20191;-71
2022/01/27 09:36:57;;;;;;;22.93;12.03;;;;;;;;;;5042402;28;20173;-70
2022/01/27 09:39:23;;;;;;;22.00;11.73;;;;;;;;;;5042319;28;20268;-70
2022/01/27 09:41:53;;;;;;;24.63;12.30;;;;;;;;;;5045850;28;20494;-71
2022/01/27 09:44:20;;;;;;;21.17;11.23;;;;;;;;;;5040693;28;20297;-71
2022/01/27 09:46:46;;;;;;;19.80;10.53;;;;;;;;;;5042978;28;20173;-72
2022/01/27 09:49:16;;;;;;;16.07;10.17;;;;;;;;;;5042476;28;20201;-71
2022/01/27 09:51:47;;;;;;;15.60;9.97;;;;;;;;;;5046808;28;20213;-71
2022/01/27 09:54:14;;;;;;;16.63;10.33;;;;;;;;;;5042348;28;20173;-72
2022/01/27 09:56:42;;;;;;;17.07;9.90;;;;;;;;;;5043346;28;20201;-72
2022/01/27 09:59:08;;;;;;;16.13;9.90;;;;;;;;;;5058498;28;20729;-70
2022/01/27 10:01:35;;;;;;;15.53;9.37;;;;;;;;;;5044867;28;20177;-70
2022/01/27 10:04:06;;;;;;;20.53;10.20;;;;;;;;;;5035954;28;20204;-71
2022/01/27 10:06:34;;;;;;;18.47;10.03;;;;;;;;;;5040140;28;20191;-70
2022/01/27 10:09:14;;;;;;;15.23;9.73;;;;;;;;;;5043066;28;20173;-69
2022/01/27 10:11:42;;;;;;;14.03;9.23;;;;;;;;;;5040074;28;20606;-70
2022/01/27 10:14:21;;;;;;;14.83;9.47;;;;;;;;;;5047491;28;20185;-70
2022/01/27 10:16:49;;;;;;;16.93;9.87;;;;;;;;;;5041995;28;20189;-69
2022/01/27 10:19:15;;;;;;;21.17;9.97;;;;;;;;;;5043563;28;20192;-70
2022/01/27 10:21:41;;;;;;;15.87;9.73;;;;;;;;;;5043235;28;20170;-70
2022/01/27 10:24:20;;;;;;;15.73;10.03;;;;;;;;;;5043770;28;20204;-69
2022/01/27 10:26:54;;;;;;;17.00;10.17;;;;;;;;;;5043876;28;20187;-69
2022/01/27 10:29:37;;;;;;;16.27;9.83;;;;;;;;;;5046807;28;20630;-68
2022/01/27 10:32:07;;;;;;;15.50;9.60;;;;;;;;;;5047161;28;20239;-69
2022/01/27 10:35:11;;;;;;;16.30;10.00;;;;;;;;;;5050754;28;20185;-69
2022/01/27 10:38:04;;;;;;;18.60;10.37;;;;;;;;;;5049230;28;20169;-69
2022/01/27 10:40:34;;;;;;;18.20;10.57;;;;;;;;;;5046163;28;20188;-69
2022/01/27 10:43:33;;;;;;;18.70;10.63;;;;;;;;;;5052431;28;20186;-69
2022/01/27 10:46:28;;;;;;;19.77;10.83;;;;;;;;;;5012480;28;20296;-69
2022/01/27 10:49:02;;;;;;;16.80;10.63;;;;;;;;;;5039451;28;20198;-69
2022/01/27 10:51:33;;;;;;;18.10;11.03;;;;;;;;;;5049576;28;20212;-69
2022/01/27 10:54:05;;;;;;;18.53;11.03;;;;;;;;;;5046900;28;20532;-70
2022/01/27 10:56:36;;;;;;;22.90;11.40;;;;;;;;;;5053732;28;20188;-69
2022/01/27 10:59:14;;;;;;;17.93;11.20;;;;;;;;;;5045236;28;20545;-69
2022/01/27 11:01:41;;;;;;;20.13;10.80;;;;;;;;;;5051196;28;20176;-69
2022/01/27 11:04:09;;;;;;;19.30;11.03;;;;;;;;;;5045868;28;20185;-69
2022/01/27 11:06:36;;;;;;;20.17;11.17;;;;;;;;;;5047865;28;20196;-69
2022/01/27 11:09:08;;;;;;;16.67;9.93;;;;;;;;;;5046310;28;20276;-69
2022/01/27 11:11:36;;;;;;;19.30;10.60;;;;;;;;;;5044604;28;20245;-69
2022/01/27 11:14:03;;;;;;;18.00;10.47;;;;;;;;;;5048395;28;20264;-68
2022/01/27 11:16:41;;;;;;;16.73;9.90;;;;;;;;;;5044003;28;20291;-68
2022/01/27 11:22:03;;;;;;;17.43;9.83;;;;;;;;;;5038693;28;20550;-69
2022/01/27 11:24:43;;;;;;;17.43;9.73;;;;;;;;;;5050592;28;20173;-69
2022/01/27 11:27:13;;;;;;;18.23;9.87;;;;;;;;;;5046243;28;20231;-69
2022/01/27 11:29:46;;;;;;;15.60;10.10;;;;;;;;;;5046830;28;20277;-69
2022/01/27 11:32:32;;;;;;;16.07;9.87;;;;;;;;;;5046739;28;20185;-68
2022/01/27 11:34:58;;;;;;;21.67;9.97;;;;;;;;;;5049566;28;20281;-69
2022/01/27 11:37:31;;;;;;;18.00;10.20;;;;;;;;;;5046136;28;20327;-70
2022/01/27 11:40:01;;;;;;;23.13;10.67;;;;;;;;;;5038790;28;20676;-69
2022/01/27 11:42:37;;;;;;;19.50;10.07;;;;;;;;;;5043775;28;20628;-69
2022/01/27 11:45:21;;;;;;;20.23;10.43;;;;;;;;;;5047408;28;20204;-69
2022/01/27 11:47:49;;;;;;;16.53;10.20;;;;;;;;;;5046599;28;20192;-69
2022/01/27 11:50:31;;;;;;;19.00;11.17;;;;;;;;;;5047596;28;20227;-69
2022/01/27 11:52:57;;;;;;;20.33;10.37;;;;;;;;;;5047146;28;20699;-69
2022/01/27 11:55:25;;;;;;;20.27;9.67;;;;;;;;;;5043645;28;20275;-69
2022/01/27 11:57:52;;;;;;;25.43;10.53;;;;;;;;;;5050502;28;20186;-69
2022/01/27 12:00:24;;;;;;;19.80;10.27;;;;;;;;;;5042291;28;20216;-68
2022/01/27 12:02:58;;;;;;;18.33;10.10;;;;;;;;;;5045919;28;20189;-69
2022/01/27 12:05:25;;;;;;;20.43;9.23;;;;;;;;;;5043407;28;20219;-69
2022/01/27 12:08:09;;;;;;;23.17;9.60;;;;;;;;;;5042446;28;20336;-69
2022/01/27 12:11:00;;;;;;;19.90;9.70;;;;;;;;;;5043046;28;20312;-69
2022/01/27 12:13:26;;;;;;;25.27;9.03;;;;;;;;;;5040504;28;20182;-70
2022/01/27 12:18:59;;;;;;;21.57;9.03;;;;;;;;;;5045358;28;20197;-69
2022/01/27 12:21:30;;;;;;;21.80;8.57;;;;;;;;;;5042509;28;20189;-68
2022/01/27 12:24:19;;;;;;;22.53;8.13;;;;;;;;;;5042363;28;20177;-67
2022/01/27 12:26:51;;;;;;;21.03;9.27;;;;;;;;;;5042475;28;20185;-69
2022/01/27 12:29:23;;;;;;;22.63;8.50;;;;;;;;;;5045135;28;20183;-70
2022/01/27 12:31:50;;;;;;;23.75;7.78;;;;;;;;;;5043459;28;20790;-68
2022/01/27 12:34:17;;;;;;;21.67;7.20;;;;;;;;;;5045896;28;20235;-68
2022/01/27 12:37:12;;;;;;;19.60;7.50;;;;;;;;;;5042388;28;20331;-68
2022/01/27 12:39:39;;;;;;;14.57;6.83;;;;;;;;;;5037516;28;20205;-68
2022/01/27 12:42:07;;;;;;;15.30;7.27;;;;;;;;;;5040744;28;20189;-68
2022/01/27 12:44:33;;;;;;;19.00;7.05;;;;;;;;;;5042854;28;20672;-68
2022/01/27 12:47:13;;;;;;;15.57;7.30;;;;;;;;;;5043261;28;20250;-69
2022/01/27 12:49:43;;;;;;;16.27;6.55;;;;;;;;;;5046059;28;20231;-69
2022/01/27 12:52:15;;;;;;;20.08;6.88;;;;;;;;;;5041938;28;20631;-67
2022/01/27 12:54:42;;;;;;;17.83;7.00;;;;;;;;;;5045709;28;20189;-68
2022/01/27 12:57:09;;;;;;;20.33;6.80;;;;;;;;;;5045359;28;20185;-69
2022/01/27 12:59:41;;;;;;;20.53;6.90;;;;;;;;;;5047464;28;20225;-68
2022/01/27 13:02:09;;;;;;;20.37;6.80;;;;;;;;;;5042447;28;20690;-68
2022/01/27 13:04:37;;;;;;;17.03;6.20;;;;;;;;;;5038705;28;20281;-68
2022/01/27 13:07:03;;;;;;;20.42;7.10;;;;;;;;;;5041726;28;20528;-68
2022/01/27 13:09:33;;;;;;;17.03;6.07;;;;;;;;;;5041543;28;20204;-69
2022/01/27 13:12:10;;;;;;;13.33;5.70;;;;;;;;;;5041603;28;20236;-68
2022/01/27 13:14:47;;;;;;;18.20;6.43;;;;;;;;;;5041653;28;20238;-68
2022/01/27 13:17:24;;;;;;;18.90;5.97;;;;;;;;;;5041771;28;20190;-69
2022/01/27 13:19:56;;;;;;;16.33;5.13;;;;;;;;;;5041597;28;20193;-69
2022/01/27 13:22:29;;;;;;;11.55;4.63;;;;;;;;;;5041137;28;20192;-68
2022/01/27 13:24:54;;;;;;;15.52;5.72;;;;;;;;;;5045200;28;20240;-69
2022/01/27 13:27:21;;;;;;;15.23;4.82;;;;;;;;;;5043185;28;20181;-68
2022/01/27 13:29:47;;;;;;;15.23;4.97;;;;;;;;;;5040857;28;20498;-69
2022/01/27 13:32:14;;;;;;;11.80;5.07;;;;;;;;;;5045268;28;20276;-69
2022/01/27 13:34:47;;;;;;;14.73;4.13;;;;;;;;;;5044229;28;20184;-68
2022/01/27 13:37:13;;;;;;;15.60;4.53;;;;;;;;;;5043334;28;20660;-67
2022/01/27 13:42:20;;;;;;;14.55;4.18;;;;;;;;;;5040738;28;20285;-67
2022/01/27 13:44:57;;;;;;;12.93;3.22;;;;;;;;;;5044030;28;20693;-68
2022/01/27 13:47:28;;;;;;;10.88;2.83;;;;;;;;;;5041584;28;20204;-68
2022/01/27 13:50:05;;;;;;;16.67;3.20;;;;;;;;;;5044631;28;20728;-68
2022/01/27 13:52:45;;;;;;;16.17;3.38;;;;;;;;;;5041521;28;20530;-68
2022/01/27 13:55:22;;;;;;;8.63;2.63;;;;;;;;;;5039882;28;20249;-68
2022/01/27 13:58:02;;;;;;;12.32;2.60;;;;;;;;;;5042472;28;20259;-68
2022/01/27 14:00:36;;;;;;;11.75;2.90;;;;;;;;;;5042263;28;20259;-68
2022/01/27 14:03:13;;;;;;;7.97;2.17;;;;;;;;;;5041034;28;20192;-68
2022/01/27 14:05:39;;;;;;;11.73;1.95;;;;;;;;;;5040219;28;20189;-69
2022/01/27 14:08:04;;;;;;;12.68;2.85;;;;;;;;;;5043177;28;20188;-68
2022/01/27 14:10:39;;;;;;;8.75;1.85;;;;;;;;;;5040287;28;20249;-68
2022/01/27 14:13:09;;;;;;;10.95;2.00;;;;;;;;;;5039550;28;20621;-68
2022/01/27 14:15:42;;;;;;;9.15;2.08;;;;;;;;;;5039870;28;20656;-67
2022/01/27 14:18:10;;;;;;;10.75;1.90;;;;;;;;;;5041314;28;20189;-69
2022/01/27 14:20:56;;;;;;;10.02;1.90;;;;;;;;;;5042248;28;20173;-68
2022/01/27 14:23:47;;;;;;;9.57;2.22;;;;;;;;;;5034057;28;20202;-69
2022/01/27 14:26:26;;;;;;;9.73;1.67;;;;;;;;;;5034921;28;20264;-68
2022/01/27 14:28:52;;;;;;;11.25;1.80;;;;;;;;;;5035393;28;20560;-69
2022/01/27 14:31:19;;;;;;;11.02;1.58;;;;;;;;;;5034277;28;20267;-69
2022/01/27 14:33:44;;;;;;;12.63;2.67;;;;;;;;;;5040005;28;20228;-68
2022/01/27 14:36:11;;;;;;;12.35;2.15;;;;;;;;;;5037938;28;20189;-68
2022/01/27 14:38:36;;;;;;;14.55;1.95;;;;;;;;;;5044490;28;20604;-67
2022/01/27 14:41:03;;;;;;;12.30;2.10;;;;;;;;;;5039434;28;20185;-68
2022/01/27 14:43:30;;;;;;;12.82;1.70;;;;;;;;;;5036606;28;20255;-67
2022/01/27 14:45:56;;;;;;;12.35;1.70;;;;;;;;;;5039585;28;20213;-69
2022/01/27 14:48:22;;;;;;;11.02;1.85;;;;;;;;;;5044430;28;20532;-68
2022/01/27 14:50:47;;;;;;;15.07;1.83;;;;;;;;;;5042236;28;20243;-69
2022/01/27 14:53:12;;;;;;;11.80;2.22;;;;;;;;;;5040638;28;20719;-69
2022/01/27 14:55:38;;;;;;;13.40;1.95;;;;;;;;;;5039380;28;20679;-69
2022/01/27 14:58:03;;;;;;;12.32;2.25;;;;;;;;;;5041619;28;20201;-68
2022/01/27 15:00:29;;;;;;;9.10;1.95;;;;;;;;;;5041787;28;20311;-68
2022/01/27 15:02:54;;;;;;;14.07;2.13;;;;;;;;;;5041540;28;20197;-68
2022/01/27 15:05:20;;;;;;;10.98;1.70;;;;;;;;;;5041914;28;20243;-68
2022/01/27 15:07:47;;;;;;;8.68;1.80;;;;;;;;;;5042595;28;20200;-69
2022/01/27 15:10:16;;;;;;;17.00;2.42;;;;;;;;;;5037718;28;20233;-68
2022/01/27 15:12:42;;;;;;;13.50;2.03;;;;;;;;;;5038281;28;20189;-67
2022/01/27 15:20:36;;;;;;;29.90;3.00;;;;;;;;;;5047605;28;20223;-68
2022/01/27 15:23:04;;;;;;;17.30;2.33;;;;;;;;;;5042533;28;20188;-68
2022/01/27 15:25:29;;;;;;;16.85;2.20;;;;;;;;;;5047104;28;20192;-68
2022/01/27 15:27:55;;;;;;;14.25;2.97;;;;;;;;;;5045969;28;20720;-68